Time;durP1;ratioP1;P1;durP2;ratioP2;P2;SDS_P1;SDS_P2;PMS_P1;PMS_P2;Temp;Humidity;BMP_temperature;BMP_pressure;BME280_temperature;BME280_humidity;BME280_pressure;Samples;Min_cycle;Max_cycle;Signal;HPM_P1;HPM_P2
2023/07/31 00:01:42;;;;;;;4.13;2.00;;;;;;;18.01;nan;99610.72;4977686;28;20212;-75
2023/07/31 00:04:07;;;;;;;3.43;1.97;;;;;;;17.99;nan;99608.22;4979533;28;20204;-77
2023/07/31 00:06:33;;;;;;;3.03;2.10;;;;;;;18.00;nan;99601.06;4977342;28;21068;-75
2023/07/31 00:08:58;;;;;;;2.23;2.03;;;;;;;17.98;nan;99600.38;4978914;28;20249;-75
2023/07/31 00:11:24;;;;;;;1.87;1.70;;;;;;;17.95;nan;99609.47;4978426;28;20203;-76
2023/07/31 00:13:49;;;;;;;3.10;1.97;;;;;;;17.91;nan;99605.44;4979077;28;20318;-76
2023/07/31 00:16:15;;;;;;;2.47;1.60;;;;;;;17.87;nan;99604.03;4977994;28;20216;-76
2023/07/31 00:18:40;;;;;;;2.33;1.80;;;;;;;17.84;nan;99609.66;4977634;28;20261;-75
2023/07/31 00:21:05;;;;;;;1.50;1.30;;;;;;;17.82;nan;99616.94;4977995;28;20223;-75
2023/07/31 00:23:31;;;;;;;2.53;1.80;;;;;;;17.79;nan;99612.72;4977801;28;20219;-76
2023/07/31 00:25:56;;;;;;;2.03;1.63;;;;;;;17.67;nan;99612.03;4978606;28;20204;-76
2023/07/31 00:28:22;;;;;;;2.37;2.13;;;;;;;17.55;nan;99609.69;4977350;28;20305;-76
2023/07/31 00:30:47;;;;;;;3.13;2.00;;;;;;;17.50;nan;99611.91;4977863;28;20201;-75
2023/07/31 00:33:13;;;;;;;2.50;1.90;;;;;;;17.45;nan;99617.69;4974211;28;20709;-75
2023/07/31 00:35:38;;;;;;;5.20;2.10;;;;;;;17.43;nan;99628.44;4976060;28;20916;-76
2023/07/31 00:38:03;;;;;;;3.50;2.37;;;;;;;17.42;nan;99618.78;4974558;28;20314;-75
2023/07/31 00:40:29;;;;;;;4.57;1.90;;;;;;;17.38;nan;99612.06;4977174;28;20229;-76
2023/07/31 00:42:54;;;;;;;2.07;1.50;;;;;;;17.34;nan;99613.34;4977706;28;20699;-76
2023/07/31 00:45:22;;;;;;;1.97;1.87;;;;;;;17.30;nan;99611.94;4978432;28;20708;-75
2023/07/31 00:47:48;;;;;;;3.30;2.03;;;;;;;17.24;nan;99613.34;4978481;28;20200;-75
2023/07/31 00:50:14;;;;;;;3.53;1.97;;;;;;;17.21;nan;99618.09;4976912;28;20817;-76
2023/07/31 00:52:40;;;;;;;2.40;1.73;;;;;;;17.22;nan;99609.16;4976113;28;20275;-75
2023/07/31 00:55:05;;;;;;;5.00;2.33;;;;;;;17.19;nan;99606.78;4957764;28;20472;-75
2023/07/31 00:57:33;;;;;;;2.50;1.97;;;;;;;17.18;nan;99602.47;4976275;28;20360;-75
2023/07/31 00:59:58;;;;;;;5.00;2.70;;;;;;;17.15;nan;99597.44;4974464;28;20213;-75
2023/07/31 01:02:24;;;;;;;2.30;1.50;;;;;;;17.15;nan;99592.97;4972718;28;20461;-75
2023/07/31 01:04:51;;;;;;;2.20;1.60;;;;;;;17.17;nan;99587.50;4956867;28;20458;-75
2023/07/31 01:07:51;;;;;;;3.20;1.80;;;;;;;17.13;nan;99584.28;4974154;28;20467;-75
2023/07/31 01:10:48;;;;;;;3.90;2.00;;;;;;;17.06;nan;99588.47;4975413;28;20488;-75
2023/07/31 01:13:15;;;;;;;4.20;2.13;;;;;;;17.04;nan;99590.44;4960290;28;20593;-76
2023/07/31 01:15:40;;;;;;;3.23;2.30;;;;;;;17.05;nan;99583.31;4976171;28;21085;-75
2023/07/31 01:18:06;;;;;;;2.67;2.47;;;;;;;16.99;nan;99582.06;4976866;28;20561;-75
2023/07/31 01:20:32;;;;;;;4.47;1.80;;;;;;;16.90;nan;99585.53;4974960;28;20225;-75
2023/07/31 01:23:41;;;;;;;3.10;2.20;;;;;;;16.86;nan;99592.13;4974027;28;20222;-76
2023/07/31 01:26:12;;;;;;;3.10;2.07;;;;;;;16.83;nan;99595.88;4976274;28;20982;-75
2023/07/31 01:28:56;;;;;;;4.27;2.90;;;;;;;16.82;nan;99591.53;4976326;28;20463;-75
2023/07/31 01:31:24;;;;;;;2.13;1.50;;;;;;;16.78;nan;99595.44;4974443;28;20468;-75
2023/07/31 01:33:56;;;;;;;2.60;2.00;;;;;;;16.74;nan;99594.00;4975678;28;20484;-75
2023/07/31 01:36:22;;;;;;;3.88;2.85;;;;;;;16.70;nan;99589.97;4973959;28;20556;-75
2023/07/31 01:38:47;;;;;;;4.87;2.03;;;;;;;16.63;nan;99581.69;4975095;28;20294;-75
2023/07/31 01:41:13;;;;;;;2.07;1.87;;;;;;;16.58;nan;99568.88;4972401;28;20219;-76
2023/07/31 01:43:39;;;;;;;2.88;1.98;;;;;;;16.55;nan;99563.84;4973858;28;20216;-75
2023/07/31 01:46:04;;;;;;;3.13;2.20;;;;;;;16.52;nan;99564.09;4976630;28;20257;-75
2023/07/31 01:48:35;;;;;;;3.13;1.90;;;;;;;16.47;nan;99555.75;4976744;28;20576;-75
2023/07/31 01:51:01;;;;;;;3.10;2.10;;;;;;;16.45;nan;99565.63;4972637;28;20208;-74
2023/07/31 01:53:27;;;;;;;4.38;2.30;;;;;;;16.47;nan;99563.69;4975998;28;20887;-75
2023/07/31 01:55:52;;;;;;;3.67;2.03;;;;;;;16.51;nan;99566.91;4938957;28;1055942;-75
2023/07/31 01:58:17;;;;;;;2.97;1.93;;;;;;;16.55;nan;99555.91;4977515;28;20314;-76
2023/07/31 02:00:43;;;;;;;2.87;2.47;;;;;;;16.59;nan;99556.44;4944706;28;20709;-75
2023/07/31 02:03:08;;;;;;;4.40;2.07;;;;;;;16.58;nan;99560.91;4975003;28;20222;-75
2023/07/31 02:05:34;;;;;;;4.73;2.10;;;;;;;16.55;nan;99557.69;4974848;28;20804;-75
2023/07/31 02:08:00;;;;;;;4.60;2.43;;;;;;;16.45;nan;99547.06;4956266;28;20293;-76
2023/07/31 02:10:26;;;;;;;2.38;2.00;;;;;;;16.38;nan;99549.41;4972080;28;20525;-75
2023/07/31 02:12:52;;;;;;;3.87;1.83;;;;;;;16.30;nan;99549.25;4972460;28;20902;-75
2023/07/31 02:15:18;;;;;;;4.37;2.43;;;;;;;16.22;nan;99550.91;4975853;28;20207;-75
2023/07/31 02:17:43;;;;;;;2.50;2.05;;;;;;;16.20;nan;99547.56;4975817;28;20554;-75
2023/07/31 02:20:09;;;;;;;2.53;2.33;;;;;;;16.26;nan;99547.03;4975264;28;20241;-75
2023/07/31 02:22:35;;;;;;;2.53;2.00;;;;;;;16.27;nan;99536.28;4975818;28;20642;-76
2023/07/31 02:25:01;;;;;;;2.22;2.00;;;;;;;16.28;nan;99534.47;4957792;28;21079;-78
2023/07/31 02:27:27;;;;;;;5.60;2.50;;;;;;;16.28;nan;99537.13;4975415;28;20238;-75
2023/07/31 02:29:53;;;;;;;5.83;2.20;;;;;;;16.22;nan;99535.00;4975264;28;20208;-75
2023/07/31 02:32:18;;;;;;;3.80;2.10;;;;;;;16.15;nan;99532.91;4969536;28;20221;-77
2023/07/31 02:34:44;;;;;;;6.00;2.57;;;;;;;16.14;nan;99533.88;4971599;28;20251;-75
2023/07/31 02:37:09;;;;;;;6.40;2.93;;;;;;;16.14;nan;99530.38;4974893;28;20598;-75
2023/07/31 02:39:35;;;;;;;2.60;2.40;;;;;;;16.14;nan;99528.56;4975545;28;20244;-75
2023/07/31 02:42:00;;;;;;;2.70;1.50;;;;;;;16.14;nan;99528.56;4976056;28;20247;-76
2023/07/31 02:44:26;;;;;;;5.53;3.50;;;;;;;16.15;nan;99524.97;4975087;28;20207;-75
2023/07/31 02:46:51;;;;;;;5.03;1.90;;;;;;;16.13;nan;99515.47;4970121;28;20275;-75
2023/07/31 02:49:16;;;;;;;2.50;2.30;;;;;;;16.10;nan;99521.03;4973844;28;20266;-75
2023/07/31 02:51:42;;;;;;;3.57;2.40;;;;;;;16.11;nan;99531.50;4972027;28;20219;-75
2023/07/31 02:54:07;;;;;;;2.30;1.67;;;;;;;16.13;nan;99529.56;4956263;28;20688;-75
2023/07/31 02:56:33;;;;;;;2.50;2.03;;;;;;;16.15;nan;99535.56;4974111;28;20237;-74
2023/07/31 02:58:58;;;;;;;3.17;1.90;;;;;;;16.15;nan;99540.88;4972536;28;20332;-74
2023/07/31 03:01:23;;;;;;;2.23;1.93;;;;;;;16.14;nan;99554.22;4973791;28;20221;-74
2023/07/31 03:03:49;;;;;;;3.43;2.00;;;;;;;16.12;nan;99548.22;4973398;28;20622;-74
2023/07/31 03:06:14;;;;;;;2.07;1.70;;;;;;;16.08;nan;99542.38;4974553;28;20217;-76
2023/07/31 03:08:39;;;;;;;4.97;2.17;;;;;;;16.07;nan;99537.22;4970307;28;20217;-76
2023/07/31 03:11:05;;;;;;;2.50;2.30;;;;;;;16.02;nan;99534.97;4971377;28;20233;-74
2023/07/31 03:13:30;;;;;;;3.33;2.40;;;;;;;16.01;nan;99533.25;4976062;28;20217;-74
2023/07/31 03:15:56;;;;;;;1.90;1.70;;;;;;;16.01;nan;99535.91;4974954;28;20578;-76
2023/07/31 03:18:21;;;;;;;3.57;2.13;;;;;;;16.00;nan;99544.00;4972664;28;20207;-76
2023/07/31 03:20:46;;;;;;;1.87;1.67;;;;;;;15.99;nan;99537.88;4973771;28;20219;-76
2023/07/31 03:23:12;;;;;;;1.93;1.57;;;;;;;15.98;nan;99543.31;4971422;28;20215;-77
2023/07/31 03:25:37;;;;;;;2.57;1.90;;;;;;;15.98;nan;99540.66;4975025;28;20241;-76
2023/07/31 03:28:03;;;;;;;3.97;2.20;;;;;;;15.96;nan;99538.16;4974290;28;20205;-76
2023/07/31 03:30:29;;;;;;;3.15;1.90;;;;;;;15.97;nan;99537.16;4972857;28;20639;-76
2023/07/31 03:32:55;;;;;;;2.60;2.00;;;;;;;15.99;nan;99539.69;4974417;28;20678;-76
2023/07/31 03:35:20;;;;;;;2.47;2.00;;;;;;;15.98;nan;99536.19;4974902;28;20448;-76
2023/07/31 03:37:45;;;;;;;3.80;2.00;;;;;;;15.99;nan;99535.22;4978105;28;20488;-76
2023/07/31 03:40:11;;;;;;;2.03;1.83;;;;;;;15.97;nan;99529.22;4975199;28;20368;-76
2023/07/31 03:42:36;;;;;;;4.73;2.27;;;;;;;15.96;nan;99532.00;4976343;28;20218;-76
2023/07/31 03:45:02;;;;;;;5.70;3.80;;;;;;;15.96;nan;99530.22;4978861;28;20199;-76
2023/07/31 03:47:29;;;;;;;2.97;2.07;;;;;;;15.96;nan;99527.56;4974072;28;20209;-76
2023/07/31 03:49:54;;;;;;;4.45;2.30;;;;;;;15.93;nan;99526.00;4978489;28;20438;-76
2023/07/31 03:52:20;;;;;;;3.95;2.70;;;;;;;15.93;nan;99533.09;4977696;28;20216;-76
2023/07/31 03:54:46;;;;;;;2.83;2.00;;;;;;;15.96;nan;99530.22;4978053;28;20606;-77
2023/07/31 03:57:11;;;;;;;10.07;2.47;;;;;;;15.99;nan;99529.94;4978325;28;20221;-76
2023/07/31 03:59:39;;;;;;;2.37;2.17;;;;;;;15.98;nan;99530.06;4975670;28;20831;-75
2023/07/31 04:02:04;;;;;;;3.25;2.00;;;;;;;15.97;nan;99534.53;4980318;28;20457;-75
2023/07/31 04:04:29;;;;;;;2.50;2.23;;;;;;;15.98;nan;99533.53;4978031;28;20603;-74
2023/07/31 04:06:55;;;;;;;6.20;3.03;;;;;;;16.03;nan;99530.50;4977318;28;20491;-77
2023/07/31 04:09:20;;;;;;;3.43;2.33;;;;;;;16.03;nan;99538.44;4978319;28;20247;-77
2023/07/31 04:11:45;;;;;;;3.93;2.37;;;;;;;15.98;nan;99533.53;4978390;28;20246;-77
2023/07/31 04:14:11;;;;;;;7.17;2.37;;;;;;;15.93;nan;99535.75;4977203;28;20240;-77
2023/07/31 04:16:36;;;;;;;3.17;2.37;;;;;;;15.90;nan;99525.41;4979049;28;20237;-77
2023/07/31 04:19:03;;;;;;;2.60;1.97;;;;;;;15.87;nan;99523.03;4978718;28;20476;-77
2023/07/31 04:21:28;;;;;;;6.07;3.85;;;;;;;15.87;nan;99526.53;4978150;28;20220;-77
2023/07/31 04:23:55;;;;;;;3.50;2.27;;;;;;;15.92;nan;99519.03;4978011;28;20307;-77
2023/07/31 04:26:21;;;;;;;3.97;2.08;;;;;;;15.96;nan;99534.66;4978681;28;20208;-77
2023/07/31 04:28:47;;;;;;;2.53;2.00;;;;;;;15.99;nan;99529.94;4979041;28;20202;-77
2023/07/31 04:31:12;;;;;;;2.70;1.97;;;;;;;16.03;nan;99533.97;4977971;28;20310;-77
2023/07/31 04:33:37;;;;;;;2.83;2.27;;;;;;;16.08;nan;99533.59;4978733;28;20203;-77
2023/07/31 04:36:03;;;;;;;4.83;2.50;;;;;;;16.14;nan;99538.34;4975264;28;20542;-77
2023/07/31 04:38:28;;;;;;;2.90;2.00;;;;;;;16.14;nan;99527.75;4977871;28;20217;-77
2023/07/31 04:40:54;;;;;;;2.77;2.10;;;;;;;16.13;nan;99539.31;4978197;28;20262;-77
2023/07/31 04:43:19;;;;;;;4.13;2.60;;;;;;;16.13;nan;99536.66;4978252;28;20214;-77
2023/07/31 04:45:47;;;;;;;2.20;2.00;;;;;;;16.13;nan;99524.25;4974931;28;20232;-77
2023/07/31 04:48:12;;;;;;;8.15;2.90;;;;;;;16.11;nan;99534.16;4975205;28;20198;-77
2023/07/31 04:50:38;;;;;;;2.87;2.40;;;;;;;16.13;nan;99532.22;4979348;28;20267;-77
2023/07/31 04:53:03;;;;;;;4.17;2.63;;;;;;;16.13;nan;99534.84;4976490;28;20244;-76
2023/07/31 04:55:29;;;;;;;4.13;3.00;;;;;;;16.19;nan;99527.34;4976784;28;20689;-77
2023/07/31 04:57:54;;;;;;;4.30;3.37;;;;;;;16.20;nan;99526.34;4979157;28;20555;-76
2023/07/31 05:00:19;;;;;;;3.90;2.43;;;;;;;16.19;nan;99532.63;4975682;28;20350;-76
2023/07/31 05:02:45;;;;;;;2.77;2.50;;;;;;;16.18;nan;99529.16;4975561;28;20292;-77
2023/07/31 05:05:10;;;;;;;5.33;3.97;;;;;;;16.25;nan;99546.19;4971771;28;20440;-77
2023/07/31 05:07:36;;;;;;;4.63;3.00;;;;;;;16.32;nan;99541.19;4977212;28;20676;-76
2023/07/31 05:10:02;;;;;;;5.55;2.67;;;;;;;16.43;nan;99541.06;4977340;28;20693;-77
2023/07/31 05:12:27;;;;;;;4.17;3.10;;;;;;;16.53;nan;99541.09;4977210;28;20217;-76
2023/07/31 05:14:53;;;;;;;3.43;3.13;;;;;;;16.63;nan;99527.81;4976945;28;20283;-77
2023/07/31 05:17:18;;;;;;;3.00;2.67;;;;;;;16.72;nan;99533.16;4977696;28;20684;-77
2023/07/31 05:19:43;;;;;;;4.20;2.13;;;;;;;16.79;nan;99538.75;4977702;28;20239;-76
2023/07/31 05:22:09;;;;;;;2.70;2.10;;;;;;;16.88;nan;99537.09;4975947;28;20683;-76
2023/07/31 05:24:34;;;;;;;4.03;2.07;;;;;;;16.96;nan;99530.13;4976744;28;20214;-76
2023/07/31 05:26:59;;;;;;;5.97;2.53;;;;;;;17.04;nan;99537.38;4977215;28;20264;-77
2023/07/31 05:29:25;;;;;;;3.20;2.07;;;;;;;17.13;nan;99535.69;4976196;28;20234;-76
2023/07/31 05:31:50;;;;;;;2.87;1.93;;;;;;;17.20;nan;99532.34;4976647;28;20201;-76
2023/07/31 05:34:16;;;;;;;2.23;1.90;;;;;;;17.29;nan;99530.63;4977440;28;20731;-77
2023/07/31 05:36:41;;;;;;;7.33;2.20;;;;;;;17.38;nan;99536.91;4977104;28;20211;-77
2023/07/31 05:39:08;;;;;;;2.40;1.73;;;;;;;17.45;nan;99535.34;4976398;28;20203;-76
2023/07/31 05:41:34;;;;;;;2.20;1.80;;;;;;;17.50;nan;99538.44;4975984;28;20227;-76
2023/07/31 05:43:59;;;;;;;2.40;1.77;;;;;;;17.60;nan;99538.38;4977244;28;21002;-77
2023/07/31 05:46:25;;;;;;;2.87;1.83;;;;;;;17.69;nan;99526.91;4976737;28;20470;-76
2023/07/31 05:48:50;;;;;;;6.20;1.90;;;;;;;17.78;nan;99535.81;4975617;28;20195;-76
2023/07/31 05:51:16;;;;;;;4.37;2.23;;;;;;;17.87;nan;99524.34;4975453;28;20719;-78
2023/07/31 05:53:41;;;;;;;4.20;1.83;;;;;;;17.97;nan;99516.31;4976976;28;20305;-77
2023/07/31 05:56:07;;;;;;;2.33;1.60;;;;;;;18.06;nan;99520.75;4974853;28;20370;-77
2023/07/31 05:58:32;;;;;;;3.07;1.90;;;;;;;18.18;nan;99521.41;4975246;28;20204;-76
2023/07/31 06:00:58;;;;;;;2.30;1.50;;;;;;;18.31;nan;99511.25;4976486;28;20218;-76
2023/07/31 06:03:23;;;;;;;3.07;1.90;;;;;;;18.63;nan;99500.09;4975920;28;20212;-77
2023/07/31 06:05:48;;;;;;;2.53;1.90;;;;;;;19.15;nan;99489.59;4973500;28;20561;-76
2023/07/31 06:08:14;;;;;;;2.67;1.60;;;;;;;19.62;nan;99491.88;4973551;28;20200;-77
2023/07/31 06:10:39;;;;;;;3.07;1.47;;;;;;;20.06;nan;99489.09;4975979;28;20200;-76
2023/07/31 06:13:05;;;;;;;2.43;1.67;;;;;;;20.44;nan;99489.53;4974701;28;20782;-77
2023/07/31 06:15:30;;;;;;;5.63;2.20;;;;;;;20.73;nan;99485.59;4974136;28;20217;-77
2023/07/31 06:17:56;;;;;;;4.20;2.00;;;;;;;20.93;nan;99486.09;4976026;28;20201;-77
2023/07/31 06:20:21;;;;;;;1.63;1.37;;;;;;;20.95;nan;99487.59;4972386;28;20218;-76
2023/07/31 06:22:47;;;;;;;3.93;1.70;;;;;;;20.91;nan;99480.91;4975902;28;20243;-76
2023/07/31 06:25:12;;;;;;;3.13;1.80;;;;;;;20.80;nan;99483.09;4976878;28;20302;-77
2023/07/31 06:27:37;;;;;;;2.30;1.40;;;;;;;20.69;nan;99484.25;4975441;28;20203;-77
2023/07/31 06:30:03;;;;;;;4.27;2.07;;;;;;;20.59;nan;99486.25;4974851;28;20198;-76
2023/07/31 06:32:30;;;;;;;2.77;1.83;;;;;;;20.57;nan;99482.91;4970239;28;20236;-77
2023/07/31 06:34:55;;;;;;;3.97;2.00;;;;;;;20.55;nan;99470.56;4976417;28;20241;-76
2023/07/31 06:37:21;;;;;;;1.60;1.20;;;;;;;20.62;nan;99475.25;4975096;28;20946;-76
2023/07/31 06:39:46;;;;;;;7.90;2.57;;;;;;;20.64;nan;99482.09;4975510;28;20212;-77
2023/07/31 06:42:11;;;;;;;2.50;2.00;;;;;;;20.65;nan;99477.56;4975698;28;20212;-76
2023/07/31 06:44:37;;;;;;;2.43;1.60;;;;;;;20.60;nan;99486.06;4976668;28;20200;-76
2023/07/31 06:47:02;;;;;;;5.40;1.73;;;;;;;20.53;nan;99499.25;4976358;28;20214;-77
2023/07/31 06:49:28;;;;;;;2.33;1.20;;;;;;;20.44;nan;99497.53;4975021;28;20208;-76
2023/07/31 06:51:53;;;;;;;7.40;4.47;;;;;;;20.41;nan;99505.84;4974707;28;20209;-76
2023/07/31 06:54:19;;;;;;;4.00;1.73;;;;;;;20.41;nan;99508.50;4976269;28;20191;-76
2023/07/31 06:56:44;;;;;;;3.03;1.43;;;;;;;20.46;nan;99516.88;4975083;28;20693;-77
2023/07/31 06:59:09;;;;;;;3.27;1.43;;;;;;;20.62;nan;99517.94;4973459;28;20272;-77
2023/07/31 07:01:35;;;;;;;2.00;1.60;;;;;;;20.85;nan;99521.66;4976263;28;20216;-76
2023/07/31 07:04:00;;;;;;;4.27;1.70;;;;;;;20.95;nan;99502.78;4973496;28;20238;-76
2023/07/31 07:06:26;;;;;;;4.53;1.70;;;;;;;20.96;nan;99507.13;4973876;28;20699;-76
2023/07/31 07:08:51;;;;;;;3.40;1.57;;;;;;;20.96;nan;99499.94;4973685;28;20233;-77
2023/07/31 07:11:16;;;;;;;2.53;1.87;;;;;;;20.99;nan;99496.09;4975247;28;20247;-77
2023/07/31 07:13:42;;;;;;;2.93;1.70;;;;;;;21.23;nan;99497.94;4977688;28;20570;-77
2023/07/31 07:18:49;;;;;;;2.17;1.97;;;;;;;22.39;nan;99478.66;5170615;23;20237;-79
2023/07/31 07:21:15;;;;;;;1.70;1.50;;;;;;;22.98;nan;99467.38;4984391;28;20473;-80
2023/07/31 07:23:42;;;;;;;4.10;2.30;;;;;;;23.50;nan;99466.53;4975309;28;20237;-78
2023/07/31 07:26:08;;;;;;;2.87;1.77;;;;;;;23.82;nan;99469.88;4971914;28;21094;-78
2023/07/31 07:28:33;;;;;;;2.87;1.87;;;;;;;24.26;nan;99463.56;4973253;28;21053;-80
2023/07/31 07:30:58;;;;;;;2.90;1.50;;;;;;;24.67;nan;99460.31;4972127;28;20283;-79
2023/07/31 07:33:24;;;;;;;2.30;1.37;;;;;;;25.04;nan;99458.34;4971966;28;20629;-80
2023/07/31 07:35:49;;;;;;;2.90;1.83;;;;;;;25.47;nan;99463.66;4974149;28;20521;-80
2023/07/31 07:38:15;;;;;;;1.30;1.20;;;;;;;25.87;nan;99451.25;4972316;28;20185;-79
2023/07/31 07:40:41;;;;;;;3.37;1.77;;;;;;;26.21;nan;99447.63;4973225;28;20247;-80
2023/07/31 07:43:06;;;;;;;4.30;2.00;;;;;;;26.34;nan;99446.84;4972404;28;20258;-79
2023/07/31 07:45:32;;;;;;;2.17;1.40;;;;;;;26.08;nan;99449.47;4970683;28;20203;-79
2023/07/31 07:47:58;;;;;;;2.03;1.30;;;;;;;25.61;nan;99443.84;4971045;28;20207;-79
2023/07/31 07:50:24;;;;;;;4.60;1.90;;;;;;;25.14;nan;99446.22;4972373;28;20197;-79
2023/07/31 07:52:49;;;;;;;4.07;1.83;;;;;;;24.72;nan;99453.31;4971564;28;20726;-79
2023/07/31 07:55:15;;;;;;;2.40;1.10;;;;;;;24.37;nan;99454.19;4970579;28;20744;-78
2023/07/31 07:57:40;;;;;;;2.30;1.63;;;;;;;24.00;nan;99464.09;4970628;28;20677;-78
2023/07/31 08:00:06;;;;;;;6.73;1.70;;;;;;;23.73;nan;99455.72;4968979;28;20204;-78
2023/07/31 08:02:39;;;;;;;2.10;1.40;;;;;;;23.58;nan;99458.38;4970176;28;20710;-79
2023/07/31 08:05:04;;;;;;;2.80;2.13;;;;;;;23.67;nan;99466.31;4970571;28;20446;-78
2023/07/31 08:07:30;;;;;;;2.80;1.70;;;;;;;24.13;nan;99466.13;4969292;28;20208;-79
2023/07/31 08:09:55;;;;;;;3.40;1.23;;;;;;;24.72;nan;99452.50;4970650;28;20477;-80
2023/07/31 08:12:21;;;;;;;2.53;1.40;;;;;;;25.34;nan;99454.44;4970181;28;20519;-78
2023/07/31 08:14:46;;;;;;;3.50;1.70;;;;;;;26.08;nan;99454.84;4969425;28;20196;-79
2023/07/31 08:17:11;;;;;;;1.50;1.30;;;;;;;26.66;nan;99444.44;4969385;28;20227;-79
2023/07/31 08:19:37;;;;;;;1.73;1.57;;;;;;;26.99;nan;99436.34;4969182;28;20211;-81
2023/07/31 08:22:03;;;;;;;3.67;1.80;;;;;;;27.22;nan;99438.66;4969501;28;20227;-80
2023/07/31 08:24:28;;;;;;;1.80;1.50;;;;;;;27.17;nan;99434.91;4970439;28;20280;-78
2023/07/31 08:26:53;;;;;;;2.30;1.40;;;;;;;27.00;nan;99431.78;4968503;28;20212;-78
2023/07/31 08:29:19;;;;;;;6.80;2.40;;;;;;;27.08;nan;99434.25;4956946;28;20677;-79
2023/07/31 08:31:44;;;;;;;1.90;1.23;;;;;;;27.14;nan;99433.44;4967645;28;20194;-78
2023/07/31 08:34:10;;;;;;;3.10;1.83;;;;;;;27.05;nan;99418.50;4970121;28;20749;-79
2023/07/31 08:36:35;;;;;;;4.80;1.63;;;;;;;26.97;nan;99427.63;4970750;28;20585;-78
2023/07/31 08:39:00;;;;;;;5.03;1.57;;;;;;;27.04;nan;99435.72;4968691;28;20286;-78
2023/07/31 08:41:27;;;;;;;1.53;1.40;;;;;;;27.13;nan;99426.38;4967505;28;20342;-80
2023/07/31 08:43:55;;;;;;;6.53;1.53;;;;;;;27.06;nan;99415.63;4967465;28;20203;-78
2023/07/31 08:46:21;;;;;;;2.37;1.97;;;;;;;26.92;nan;99414.81;4981143;28;20946;-77
2023/07/31 08:48:47;;;;;;;5.10;1.80;;;;;;;26.77;nan;99410.66;4968473;28;20482;-77
2023/07/31 08:51:14;;;;;;;3.87;1.50;;;;;;;26.43;nan;99410.59;4968624;28;20766;-77
2023/07/31 08:53:40;;;;;;;5.03;1.30;;;;;;;26.13;nan;99404.75;4950331;28;20491;-77
2023/07/31 08:56:06;;;;;;;2.80;1.30;;;;;;;25.93;nan;99411.94;4966756;28;20467;-77
2023/07/31 08:58:33;;;;;;;3.80;1.30;;;;;;;25.72;nan;99408.31;4967399;28;20230;-77
2023/07/31 09:01:03;;;;;;;3.07;1.47;;;;;;;25.56;nan;99405.97;4967910;28;20984;-77
2023/07/31 09:03:33;;;;;;;4.57;1.70;;;;;;;25.75;nan;99402.53;4969463;28;20598;-77
2023/07/31 09:05:59;;;;;;;3.97;1.90;;;;;;;26.04;nan;99405.97;4966911;28;20454;-77
2023/07/31 09:08:29;;;;;;;1.90;1.33;;;;;;;26.14;nan;99395.66;4969401;28;20477;-77
2023/07/31 09:10:59;;;;;;;3.57;1.83;;;;;;;26.20;nan;99394.81;4968296;28;20451;-77
2023/07/31 09:13:25;;;;;;;5.63;1.47;;;;;;;26.18;nan;99393.38;4968422;28;20554;-77
2023/07/31 09:15:50;;;;;;;1.93;1.23;;;;;;;26.10;nan;99390.88;4968951;28;21608;-76
2023/07/31 09:18:19;;;;;;;4.00;1.60;;;;;;;25.95;nan;99381.13;4968298;28;20659;-77
2023/07/31 09:20:44;;;;;;;2.83;1.67;;;;;;;25.82;nan;99381.88;4964991;28;20211;-76
2023/07/31 09:23:12;;;;;;;2.93;1.77;;;;;;;25.94;nan;99367.84;4968708;28;20509;-76
2023/07/31 09:25:39;;;;;;;3.50;1.60;;;;;;;26.12;nan;99376.19;4969379;28;20203;-77
2023/07/31 09:28:08;;;;;;;1.57;1.10;;;;;;;26.32;nan;99364.59;4968969;28;20496;-76
2023/07/31 09:30:51;;;;;;;2.30;1.27;;;;;;;26.49;nan;99365.84;4968919;28;20463;-76
2023/07/31 09:33:18;;;;;;;2.20;1.90;;;;;;;26.65;nan;99359.25;4968763;28;21020;-77
2023/07/31 09:35:43;;;;;;;4.00;1.63;;;;;;;26.79;nan;99368.16;4966914;28;20811;-76
2023/07/31 09:38:11;;;;;;;2.43;1.33;;;;;;;26.84;nan;99361.13;4969458;28;20470;-76
2023/07/31 09:40:39;;;;;;;3.03;1.63;;;;;;;26.87;nan;99355.31;4966121;28;20208;-76
2023/07/31 09:43:06;;;;;;;2.43;1.70;;;;;;;26.88;nan;99362.34;4968466;28;20456;-77
2023/07/31 09:45:38;;;;;;;4.40;1.80;;;;;;;26.85;nan;99348.47;4966254;28;20823;-77
2023/07/31 09:48:09;;;;;;;2.50;1.83;;;;;;;26.77;nan;99344.13;4968794;28;20566;-77
2023/07/31 09:50:37;;;;;;;3.90;1.70;;;;;;;26.83;nan;99339.75;4966684;28;20470;-77
2023/07/31 09:53:02;;;;;;;4.13;1.53;;;;;;;26.88;nan;99331.88;4967923;28;20999;-77
2023/07/31 09:55:48;;;;;;;4.47;1.80;;;;;;;26.86;nan;99334.75;4969925;28;20884;-77
2023/07/31 09:58:14;;;;;;;3.90;1.30;;;;;;;26.84;nan;99327.94;4969034;28;20203;-78
2023/07/31 10:00:43;;;;;;;1.67;1.50;;;;;;;26.91;nan;99328.75;4969988;28;20490;-77
2023/07/31 10:03:10;;;;;;;2.90;2.50;;;;;;;26.93;nan;99316.72;4950478;28;20204;-75
2023/07/31 10:05:39;;;;;;;3.43;1.60;;;;;;;26.93;nan;99321.28;4968963;28;20504;-75
2023/07/31 10:08:07;;;;;;;2.03;1.50;;;;;;;26.97;nan;99319.81;4967068;28;20562;-76
2023/07/31 10:10:34;;;;;;;3.10;1.60;;;;;;;27.14;nan;99321.03;4968422;28;20450;-75
2023/07/31 10:12:59;;;;;;;2.20;1.63;;;;;;;27.45;nan;99316.78;4966987;28;20471;-75
2023/07/31 10:15:26;;;;;;;4.03;1.57;;;;;;;27.58;nan;99307.81;4968316;28;20675;-75
2023/07/31 10:17:53;;;;;;;4.20;2.70;;;;;;;27.57;nan;99304.28;4968717;28;20236;-76
2023/07/31 10:20:20;;;;;;;2.90;1.63;;;;;;;27.57;nan;99298.03;4967474;28;20484;-75
2023/07/31 10:22:46;;;;;;;2.73;1.47;;;;;;;27.65;nan;99294.25;4966216;28;20468;-75
2023/07/31 10:25:12;;;;;;;2.07;1.70;;;;;;;27.67;nan;99292.19;4966525;28;20447;-76
2023/07/31 10:27:41;;;;;;;3.50;1.60;;;;;;;27.76;nan;99296.28;4968177;28;20606;-76
2023/07/31 10:30:11;;;;;;;2.23;1.60;;;;;;;27.80;nan;99281.34;4966791;28;20507;-76
2023/07/31 10:32:38;;;;;;;2.50;1.37;;;;;;;27.81;nan;99282.97;4967434;28;20496;-75
2023/07/31 10:35:05;;;;;;;3.60;1.70;;;;;;;27.75;nan;99284.66;4967270;28;20505;-76
2023/07/31 10:37:39;;;;;;;2.70;1.83;;;;;;;27.69;nan;99284.72;4968640;28;20501;-75
2023/07/31 10:40:06;;;;;;;2.20;1.40;;;;;;;27.59;nan;99290.56;4967587;28;20443;-76
2023/07/31 10:42:48;;;;;;;3.93;1.70;;;;;;;27.43;nan;99294.59;4968778;28;20480;-76
2023/07/31 10:45:23;;;;;;;3.33;1.73;;;;;;;27.27;nan;99287.81;4967559;28;21487;-76
2023/07/31 10:47:48;;;;;;;2.43;1.37;;;;;;;27.09;nan;99295.75;4968172;28;20594;-76
2023/07/31 10:50:21;;;;;;;4.60;2.03;;;;;;;27.08;nan;99308.38;4967834;28;20877;-76
2023/07/31 10:52:52;;;;;;;5.17;1.73;;;;;;;27.04;nan;99312.56;4967844;28;20240;-76
2023/07/31 10:55:28;;;;;;;1.90;1.17;;;;;;;26.95;nan;99311.13;4968052;28;20815;-75
2023/07/31 10:57:55;;;;;;;1.83;1.73;;;;;;;26.83;nan;99300.16;4968419;28;20451;-75
2023/07/31 11:00:22;;;;;;;4.27;1.70;;;;;;;26.89;nan;99295.78;4965842;28;20480;-76
2023/07/31 11:02:58;;;;;;;3.60;1.80;;;;;;;27.05;nan;99289.94;4968266;28;20475;-76
2023/07/31 11:05:43;;;;;;;4.43;2.07;;;;;;;27.25;nan;99291.78;4965902;28;21038;-76
2023/07/31 11:08:16;;;;;;;2.50;1.60;;;;;;;27.25;nan;99294.47;4964322;28;20465;-75
2023/07/31 11:10:43;;;;;;;2.13;1.47;;;;;;;27.14;nan;99287.84;4966220;28;20482;-76
2023/07/31 11:13:08;;;;;;;2.10;1.60;;;;;;;26.93;nan;99288.94;4966251;28;20463;-76
2023/07/31 11:15:34;;;;;;;6.63;2.10;;;;;;;26.72;nan;99286.50;4964161;28;20541;-76
2023/07/31 11:18:03;;;;;;;1.63;1.53;;;;;;;26.55;nan;99294.22;4968827;28;20232;-75
2023/07/31 11:20:33;;;;;;;5.40;1.80;;;;;;;26.41;nan;99287.94;4965327;28;20537;-76
2023/07/31 11:23:02;;;;;;;6.80;2.20;;;;;;;26.34;nan;99276.38;4966306;28;20467;-76
2023/07/31 11:25:29;;;;;;;2.93;1.67;;;;;;;26.33;nan;99277.38;4965971;28;21005;-76
2023/07/31 11:27:56;;;;;;;1.80;1.60;;;;;;;26.33;nan;99274.69;4965660;28;20456;-76
2023/07/31 11:30:21;;;;;;;4.37;2.00;;;;;;;26.29;nan;99285.06;4966635;28;20753;-76
2023/07/31 11:32:47;;;;;;;3.30;2.17;;;;;;;26.28;nan;99278.03;4967934;28;20977;-76
2023/07/31 11:35:12;;;;;;;2.17;1.83;;;;;;;26.33;nan;99280.94;4965197;28;20553;-75
2023/07/31 11:37:39;;;;;;;2.37;1.90;;;;;;;26.34;nan;99274.50;4963431;28;20199;-76
2023/07/31 11:40:05;;;;;;;3.33;1.80;;;;;;;26.38;nan;99272.22;4964853;28;20661;-76
2023/07/31 11:42:30;;;;;;;2.63;1.93;;;;;;;26.37;nan;99262.47;4966346;28;20466;-75
2023/07/31 11:44:56;;;;;;;2.07;1.70;;;;;;;26.30;nan;99258.97;4972054;28;20292;-76
2023/07/31 11:47:21;;;;;;;3.97;1.60;;;;;;;26.20;nan;99246.75;4972006;28;20597;-75
2023/07/31 11:49:48;;;;;;;2.67;1.60;;;;;;;26.11;nan;99255.25;4970724;28;20207;-75
2023/07/31 11:52:15;;;;;;;4.63;1.77;;;;;;;26.04;nan;99249.88;4970269;28;20204;-76